Time;durP1;ratioP1;P1;durP2;ratioP2;P2;SDS_P1;SDS_P2;PMS_P1;PMS_P2;Temp;Humidity;BMP_temperature;BMP_pressure;BME280_temperature;BME280_humidity;BME280_pressure;Samples;Min_cycle;Max_cycle;Signal;HPM_P1;HPM_P2
2023/11/23 00:02:01;;;;;;;86.28;52.58;;;8.20;99.90;;;;;;5008118;28;20077;-79
2023/11/23 00:04:27;;;;;;;79.93;50.85;;;8.20;99.90;;;;;;5009718;28;20088;-79
2023/11/23 00:06:53;;;;;;;86.10;51.70;;;8.30;99.90;;;;;;5005540;28;20065;-80
2023/11/23 00:09:19;;;;;;;86.07;51.28;;;8.30;99.90;;;;;;5004632;28;20053;-79
2023/11/23 00:11:45;;;;;;;87.20;51.88;;;8.30;99.90;;;;;;4990506;28;20128;-80
2023/11/23 00:14:10;;;;;;;79.00;49.55;;;8.30;99.90;;;;;;4998264;28;20048;-80
2023/11/23 00:16:36;;;;;;;88.85;52.97;;;8.30;99.90;;;;;;4992737;28;20034;-81
2023/11/23 00:19:02;;;;;;;83.97;51.03;;;8.40;99.90;;;;;;5005242;28;20076;-79
2023/11/23 00:21:28;;;;;;;79.40;51.97;;;8.40;99.90;;;;;;5005261;28;20399;-81
2023/11/23 00:23:54;;;;;;;85.75;54.20;;;8.40;99.90;;;;;;4994090;28;20048;-80
2023/11/23 00:26:20;;;;;;;90.45;53.25;;;8.40;99.90;;;;;;4989998;28;20384;-81
2023/11/23 00:28:46;;;;;;;94.10;52.67;;;8.50;99.90;;;;;;5015653;28;20029;-79
2023/11/23 00:31:11;;;;;;;84.70;52.53;;;8.50;99.90;;;;;;4998583;28;20061;-80
2023/11/23 00:33:37;;;;;;;79.60;49.13;;;8.50;99.90;;;;;;4990231;28;20049;-79
2023/11/23 00:36:03;;;;;;;85.88;52.20;;;8.50;99.90;;;;;;5003656;28;20045;-79
2023/11/23 00:38:29;;;;;;;83.60;49.05;;;8.60;99.90;;;;;;5014412;28;20045;-80
2023/11/23 00:40:55;;;;;;;80.03;50.10;;;8.60;99.90;;;;;;5006853;28;20041;-79
2023/11/23 00:43:21;;;;;;;74.97;46.72;;;8.70;99.90;;;;;;5012781;28;20238;-80
2023/11/23 00:45:50;;;;;;;84.32;49.20;;;8.70;99.90;;;;;;5008954;28;20040;-79
2023/11/23 00:48:16;;;;;;;73.15;47.83;;;8.70;99.90;;;;;;5014939;28;20041;-79
2023/11/23 00:50:41;;;;;;;74.32;48.30;;;8.70;99.90;;;;;;5007171;28;20095;-78
2023/11/23 00:53:07;;;;;;;76.43;47.40;;;8.80;99.90;;;;;;4998481;28;20037;-78
2023/11/23 00:55:33;;;;;;;72.15;45.80;;;8.80;99.90;;;;;;5014346;28;20102;-78
2023/11/23 00:57:58;;;;;;;88.80;49.63;;;8.80;99.90;;;;;;5007377;28;20088;-78
2023/11/23 01:00:24;;;;;;;70.32;44.90;;;8.80;99.90;;;;;;4991735;28;20041;-78
2023/11/23 01:02:51;;;;;;;84.53;49.88;;;8.80;99.90;;;;;;5004318;28;20048;-79
2023/11/23 01:05:18;;;;;;;73.75;47.17;;;8.90;99.90;;;;;;4985241;28;20058;-79
2023/11/23 01:07:44;;;;;;;84.30;47.78;;;8.90;99.90;;;;;;4992033;28;20038;-78
2023/11/23 01:10:10;;;;;;;83.60;47.90;;;8.90;99.90;;;;;;4988576;28;20489;-79
2023/11/23 01:12:36;;;;;;;80.85;46.78;;;8.80;99.90;;;;;;4989231;28;20037;-79
2023/11/23 01:15:02;;;;;;;76.20;44.90;;;8.90;99.90;;;;;;4984064;28;20095;-78
2023/11/23 01:17:28;;;;;;;67.45;43.20;;;8.90;99.90;;;;;;4998680;28;20053;-79
2023/11/23 01:19:54;;;;;;;87.20;45.38;;;8.90;99.90;;;;;;5002626;28;20110;-79
2023/11/23 01:23:07;;;;;;;75.93;46.08;;;8.90;99.90;;;;;;5000813;28;20495;-78
2023/11/23 01:25:53;;;;;;;78.68;44.65;;;8.90;99.90;;;;;;4963250;28;20099;-79
2023/11/23 01:28:19;;;;;;;76.00;43.53;;;8.90;99.90;;;;;;4973486;28;20573;-79
2023/11/23 01:30:45;;;;;;;74.30;42.28;;;9.00;99.90;;;;;;4950009;28;20049;-79
2023/11/23 01:33:11;;;;;;;61.08;41.35;;;9.00;99.90;;;;;;4966036;28;20081;-79
2023/11/23 01:35:37;;;;;;;68.82;41.88;;;9.00;99.90;;;;;;4970620;28;20069;-79
2023/11/23 01:38:03;;;;;;;61.22;39.83;;;9.00;99.90;;;;;;4968570;28;20080;-79
2023/11/23 01:40:30;;;;;;;57.95;38.92;;;9.00;99.90;;;;;;4962967;28;20047;-79
2023/11/23 01:43:22;;;;;;;66.82;41.13;;;9.10;99.90;;;;;;4968971;28;20197;-80
2023/11/23 01:45:48;;;;;;;62.17;37.53;;;9.10;99.90;;;;;;4959471;28;20478;-80
2023/11/23 01:48:15;;;;;;;56.72;35.47;;;9.10;99.90;;;;;;4957023;28;20125;-79
2023/11/23 01:50:42;;;;;;;55.47;36.50;;;9.20;99.90;;;;;;4963809;28;20046;-80
2023/11/23 01:53:10;;;;;;;59.00;36.78;;;9.20;99.90;;;;;;4962388;28;21356;-80
2023/11/23 01:55:36;;;;;;;51.25;33.45;;;9.20;99.90;;;;;;4946922;28;20042;-80
2023/11/23 01:58:06;;;;;;;52.13;34.20;;;9.20;99.90;;;;;;4974142;28;20053;-80
2023/11/23 02:00:33;;;;;;;58.90;35.08;;;9.20;99.90;;;;;;4965582;28;20587;-79
2023/11/23 02:03:00;;;;;;;47.95;31.58;;;9.30;99.90;;;;;;4948862;28;20099;-79
2023/11/23 02:05:26;;;;;;;55.53;32.70;;;9.20;99.90;;;;;;4964718;28;20065;-80
2023/11/23 02:07:52;;;;;;;56.35;32.45;;;9.30;99.90;;;;;;4949643;28;20039;-80
2023/11/23 02:10:18;;;;;;;46.63;28.65;;;9.30;99.90;;;;;;4959051;28;20107;-79
2023/11/23 02:12:48;;;;;;;42.03;28.30;;;9.30;99.90;;;;;;4967369;28;20058;-79
2023/11/23 02:15:14;;;;;;;50.05;27.88;;;9.30;99.90;;;;;;4970430;28;20536;-80
2023/11/23 02:17:43;;;;;;;44.25;28.48;;;9.40;99.90;;;;;;4985713;28;20050;-79
2023/11/23 02:20:10;;;;;;;49.03;26.55;;;9.40;99.90;;;;;;4985298;28;20037;-79
2023/11/23 02:22:36;;;;;;;48.25;27.20;;;9.40;99.90;;;;;;4993608;28;20050;-80
2023/11/23 02:25:06;;;;;;;41.05;24.45;;;9.40;99.90;;;;;;4992865;28;20037;-79
2023/11/23 02:27:35;;;;;;;36.78;22.45;;;9.50;99.90;;;;;;5005524;28;20037;-80
2023/11/23 02:30:05;;;;;;;36.47;22.60;;;9.50;99.90;;;;;;5003826;28;20396;-79
2023/11/23 02:32:31;;;;;;;35.10;19.10;;;9.50;99.90;;;;;;5002344;28;20049;-78
2023/11/23 02:34:57;;;;;;;36.92;19.30;;;9.50;99.90;;;;;;4994838;28;20045;-78
2023/11/23 02:37:23;;;;;;;29.38;17.88;;;9.50;99.90;;;;;;4987411;28;20042;-79
2023/11/23 02:39:49;;;;;;;31.05;18.20;;;9.60;99.90;;;;;;5000365;28;20030;-80
2023/11/23 02:42:15;;;;;;;31.48;17.30;;;9.60;99.90;;;;;;5002259;28;20566;-80
2023/11/23 02:44:41;;;;;;;30.55;16.30;;;9.70;99.90;;;;;;4987726;28;20029;-79
2023/11/23 02:47:07;;;;;;;26.75;15.43;;;9.70;99.90;;;;;;4987962;28;20076;-80
2023/11/23 02:49:33;;;;;;;24.60;13.70;;;9.80;99.90;;;;;;5021078;28;20083;-80
2023/11/23 02:51:59;;;;;;;27.90;13.93;;;9.80;99.90;;;;;;4991627;28;20443;-80
2023/11/23 02:54:28;;;;;;;22.45;12.23;;;9.80;99.90;;;;;;5012600;28;20045;-80
2023/11/23 02:56:54;;;;;;;20.55;9.73;;;9.90;99.90;;;;;;4995747;28;20432;-80
2023/11/23 02:59:19;;;;;;;21.73;9.25;;;9.90;99.90;;;;;;5000267;28;20243;-80
2023/11/23 03:01:45;;;;;;;19.27;8.77;;;9.90;99.90;;;;;;5005653;28;20041;-80
2023/11/23 03:04:11;;;;;;;22.23;8.68;;;9.90;99.90;;;;;;4992262;28;20041;-79
2023/11/23 03:06:37;;;;;;;22.02;8.63;;;9.90;99.90;;;;;;4999132;28;20041;-80
2023/11/23 03:09:02;;;;;;;22.42;8.07;;;10.00;99.90;;;;;;4994465;28;20033;-81
2023/11/23 03:11:28;;;;;;;20.35;8.95;;;10.00;99.90;;;;;;5009391;28;20496;-81
2023/11/23 03:13:57;;;;;;;19.90;8.32;;;10.00;99.90;;;;;;5008825;28;20052;-81
2023/11/23 03:16:24;;;;;;;20.00;7.30;;;10.00;99.90;;;;;;4991254;28;20138;-81
2023/11/23 03:18:50;;;;;;;17.92;7.15;;;10.10;99.90;;;;;;5010399;28;20084;-82
2023/11/23 03:21:16;;;;;;;20.83;7.13;;;10.10;99.90;;;;;;4989510;28;20056;-81
2023/11/23 03:23:42;;;;;;;19.10;6.82;;;10.10;99.90;;;;;;5011999;28;20396;-80
2023/11/23 03:26:09;;;;;;;18.85;6.55;;;10.10;99.90;;;;;;4995534;28;20060;-80
2023/11/23 03:28:35;;;;;;;16.50;6.43;;;10.20;99.90;;;;;;5007541;28;20033;-81
2023/11/23 03:31:01;;;;;;;18.55;6.80;;;10.20;99.90;;;;;;5013484;28;20041;-80
2023/11/23 03:33:27;;;;;;;24.85;7.15;;;10.20;99.90;;;;;;5010191;28;20049;-80
2023/11/23 03:35:53;;;;;;;16.40;6.30;;;10.20;99.90;;;;;;5011217;28;20053;-79
2023/11/23 03:38:19;;;;;;;18.83;7.20;;;10.20;99.90;;;;;;5009818;28;20049;-79
2023/11/23 03:40:45;;;;;;;16.85;6.40;;;10.20;99.90;;;;;;5011298;28;20045;-80
2023/11/23 03:43:11;;;;;;;16.80;6.05;;;10.20;99.90;;;;;;5007793;28;20045;-80
2023/11/23 03:45:36;;;;;;;16.45;6.70;;;10.20;99.90;;;;;;5001021;28;20163;-80
2023/11/23 03:48:03;;;;;;;19.60;6.85;;;10.20;99.90;;;;;;4993798;28;20037;-80
2023/11/23 03:50:29;;;;;;;16.67;6.10;;;10.30;99.90;;;;;;5010751;28;20428;-79
2023/11/23 03:52:55;;;;;;;22.92;6.38;;;10.30;99.90;;;;;;5005626;28;20183;-80
2023/11/23 03:55:22;;;;;;;18.75;5.90;;;10.30;99.90;;;;;;5007108;28;20049;-80
2023/11/23 03:57:48;;;;;;;15.38;5.85;;;10.30;99.90;;;;;;4998604;28;20049;-81
2023/11/23 04:00:15;;;;;;;16.15;5.20;;;10.30;99.90;;;;;;4991568;28;20053;-79
2023/11/23 04:02:43;;;;;;;15.48;5.35;;;10.30;99.90;;;;;;4996316;28;20657;-81
2023/11/23 04:05:09;;;;;;;17.13;6.05;;;10.30;99.90;;;;;;5015878;28;20041;-80
2023/11/23 04:07:34;;;;;;;16.83;6.35;;;10.30;99.90;;;;;;5010434;28;20530;-80
2023/11/23 04:10:02;;;;;;;17.52;5.72;;;10.30;99.90;;;;;;5013481;28;20044;-80
2023/11/23 04:12:28;;;;;;;15.00;4.85;;;10.30;99.90;;;;;;5009602;28;20049;-80
2023/11/23 04:14:54;;;;;;;18.88;5.28;;;10.30;99.90;;;;;;4995957;28;20512;-80
2023/11/23 04:17:20;;;;;;;17.23;5.75;;;10.30;99.90;;;;;;5013976;28;20053;-81
2023/11/23 04:19:46;;;;;;;15.45;5.57;;;10.30;99.90;;;;;;4992601;28;20052;-81
2023/11/23 04:22:11;;;;;;;15.27;5.53;;;10.30;99.90;;;;;;5008601;28;20228;-80
2023/11/23 04:24:39;;;;;;;17.90;5.10;;;10.30;99.90;;;;;;5008079;28;20190;-80
2023/11/23 04:27:05;;;;;;;19.60;5.47;;;10.30;99.90;;;;;;4991530;28;20037;-80
2023/11/23 04:29:31;;;;;;;18.13;5.72;;;10.30;99.90;;;;;;4993913;28;20045;-82
2023/11/23 04:31:57;;;;;;;16.15;5.40;;;10.30;99.90;;;;;;5011467;28;20033;-81
2023/11/23 04:34:26;;;;;;;17.13;5.10;;;10.30;99.90;;;;;;4999849;28;20507;-81
2023/11/23 04:36:52;;;;;;;15.90;5.63;;;10.30;99.90;;;;;;4989503;28;20041;-81
2023/11/23 04:39:18;;;;;;;16.65;5.43;;;10.30;99.90;;;;;;5011208;28;20167;-81
2023/11/23 04:41:43;;;;;;;20.73;5.45;;;10.30;99.90;;;;;;4998889;28;20472;-82
2023/11/23 04:44:09;;;;;;;19.92;5.50;;;10.30;99.90;;;;;;4993153;28;20049;-81
2023/11/23 04:46:35;;;;;;;18.80;5.45;;;10.40;99.90;;;;;;4990816;28;20068;-80
2023/11/23 04:49:01;;;;;;;12.25;4.75;;;10.30;99.90;;;;;;5010738;28;20071;-81
2023/11/23 04:51:27;;;;;;;18.60;4.95;;;10.40;99.90;;;;;;4991759;28;20519;-80
2023/11/23 04:53:53;;;;;;;19.75;5.15;;;10.40;99.90;;;;;;5009286;28;20042;-81
2023/11/23 04:56:19;;;;;;;17.33;5.15;;;10.40;99.90;;;;;;5015253;28;20056;-81
2023/11/23 04:58:45;;;;;;;16.58;5.10;;;10.30;99.90;;;;;;5000308;28;20517;-82
2023/11/23 05:01:11;;;;;;;18.95;4.85;;;10.30;99.90;;;;;;5006127;28;20045;-81
2023/11/23 05:03:36;;;;;;;18.35;5.05;;;10.30;99.90;;;;;;4984813;28;20037;-81
2023/11/23 05:06:03;;;;;;;15.55;5.10;;;10.30;99.90;;;;;;5011945;28;20095;-80
2023/11/23 05:08:29;;;;;;;18.00;5.38;;;10.30;99.90;;;;;;4997532;28;20052;-80
2023/11/23 05:10:54;;;;;;;18.90;5.18;;;10.30;99.90;;;;;;5006566;28;20439;-80
2023/11/23 05:13:20;;;;;;;16.48;5.68;;;10.30;99.90;;;;;;5009918;28;20187;-81
2023/11/23 05:15:46;;;;;;;14.57;5.65;;;10.40;99.90;;;;;;4988898;28;20041;-82
2023/11/23 05:18:15;;;;;;;15.50;5.18;;;10.40;99.90;;;;;;4989157;28;20073;-80
2023/11/23 05:20:42;;;;;;;19.92;5.22;;;10.40;99.90;;;;;;5007034;28;20084;-81
2023/11/23 05:23:07;;;;;;;18.90;5.43;;;10.40;99.90;;;;;;5008148;28;20134;-81
2023/11/23 05:25:34;;;;;;;16.10;5.60;;;10.40;99.90;;;;;;4992657;28;20115;-81
2023/11/23 05:28:00;;;;;;;15.18;5.00;;;10.40;99.90;;;;;;5012567;28;20102;-83
2023/11/23 05:30:27;;;;;;;14.05;4.95;;;10.40;99.90;;;;;;4994581;28;20052;-81
2023/11/23 05:32:53;;;;;;;20.73;5.47;;;10.40;99.90;;;;;;5014065;28;20037;-81
2023/11/23 05:35:19;;;;;;;16.35;4.97;;;10.40;99.90;;;;;;5007794;28;20060;-82
2023/11/23 05:37:44;;;;;;;20.25;5.60;;;10.40;99.90;;;;;;5008762;28;20179;-80
2023/11/23 05:40:15;;;;;;;16.83;5.38;;;10.40;99.90;;;;;;4993659;28;20052;-81
2023/11/23 05:42:42;;;;;;;16.10;5.35;;;10.40;99.90;;;;;;4987579;28;20472;-80
2023/11/23 05:45:09;;;;;;;16.48;4.80;;;10.40;99.90;;;;;;4989614;28;20052;-81
2023/11/23 05:47:35;;;;;;;20.08;5.35;;;10.40;99.90;;;;;;5008926;28;20496;-81
2023/11/23 05:50:02;;;;;;;13.25;5.22;;;10.40;99.90;;;;;;5010132;28;20041;-81
2023/11/23 05:52:29;;;;;;;18.77;5.68;;;10.40;99.90;;;;;;4991724;28;20467;-81
2023/11/23 05:54:55;;;;;;;12.98;4.75;;;10.40;99.90;;;;;;4994500;28;20034;-81
2023/11/23 05:57:24;;;;;;;21.63;5.93;;;10.40;99.90;;;;;;4999645;28;20634;-81
2023/11/23 05:59:51;;;;;;;14.07;4.93;;;10.40;99.90;;;;;;5008927;28;20045;-81
2023/11/23 06:02:21;;;;;;;16.65;5.22;;;10.40;99.90;;;;;;5013531;28;20057;-81
2023/11/23 06:04:49;;;;;;;15.73;4.65;;;10.50;99.90;;;;;;5007766;28;20706;-81
2023/11/23 06:07:15;;;;;;;14.15;4.78;;;10.50;99.90;;;;;;4989733;28;20239;-81
2023/11/23 06:09:42;;;;;;;13.52;4.65;;;10.50;99.90;;;;;;5000922;28;20107;-80
2023/11/23 06:12:08;;;;;;;19.23;5.03;;;10.50;99.90;;;;;;5010231;28;20054;-80
2023/11/23 06:14:38;;;;;;;19.83;5.00;;;10.50;99.90;;;;;;4989513;28;20045;-78
2023/11/23 06:17:06;;;;;;;12.43;5.00;;;10.60;99.90;;;;;;5004525;28;20037;-78
2023/11/23 06:19:32;;;;;;;15.13;4.63;;;10.50;99.90;;;;;;4989354;28;20494;-79
2023/11/23 06:21:58;;;;;;;15.98;4.57;;;10.60;99.90;;;;;;5010059;28;20098;-79
2023/11/23 06:24:24;;;;;;;18.58;5.47;;;10.60;99.90;;;;;;5004447;28;20080;-79
2023/11/23 06:26:52;;;;;;;13.80;5.20;;;10.60;99.90;;;;;;5015177;28;20076;-79
2023/11/23 06:29:17;;;;;;;14.45;4.45;;;10.60;99.90;;;;;;4993761;28;20501;-79
2023/11/23 06:31:50;;;;;;;15.88;4.13;;;10.60;99.90;;;;;;5012412;28;20164;-79
2023/11/23 06:34:16;;;;;;;12.48;4.20;;;10.60;99.90;;;;;;5008136;28;20053;-78
2023/11/23 06:36:42;;;;;;;17.00;5.00;;;10.60;99.90;;;;;;5010207;28;20103;-78
2023/11/23 06:39:09;;;;;;;17.65;4.85;;;10.60;99.90;;;;;;5010572;28;20046;-85
2023/11/23 06:41:35;;;;;;;15.27;3.83;;;10.60;99.90;;;;;;4991871;28;20071;-85
2023/11/23 06:44:01;;;;;;;18.02;3.92;;;10.60;99.90;;;;;;5003392;28;20264;-86
2023/11/23 06:46:27;;;;;;;18.65;4.88;;;10.60;99.90;;;;;;4994332;28;20124;-76
2023/11/23 06:48:52;;;;;;;14.43;4.75;;;10.70;99.90;;;;;;5012802;28;20076;-76
2023/11/23 06:51:19;;;;;;;20.60;4.60;;;10.70;99.90;;;;;;5013538;28;20549;-76
2023/11/23 06:53:46;;;;;;;13.57;4.32;;;10.70;99.90;;;;;;5015830;28;20094;-76
2023/11/23 06:56:12;;;;;;;14.65;4.38;;;10.70;99.90;;;;;;5010499;28;20279;-76
2023/11/23 06:58:42;;;;;;;18.27;4.70;;;10.70;99.90;;;;;;5010170;28;20045;-76
2023/11/23 07:01:09;;;;;;;14.98;4.32;;;10.80;99.90;;;;;;4986845;28;20560;-76
2023/11/23 07:03:36;;;;;;;16.95;4.45;;;10.80;99.90;;;;;;5000630;28;20072;-76
2023/11/23 07:06:02;;;;;;;17.35;4.95;;;10.90;99.90;;;;;;4995638;28;20094;-76
2023/11/23 07:08:31;;;;;;;16.92;4.45;;;10.90;99.90;;;;;;5006270;28;20037;-76
2023/11/23 07:10:57;;;;;;;18.35;4.55;;;10.90;99.90;;;;;;5007829;28;21128;-76
2023/11/23 07:13:23;;;;;;;11.98;3.50;;;10.90;99.90;;;;;;5013516;28;20516;-76
2023/11/23 07:15:49;;;;;;;15.35;3.90;;;10.90;99.90;;;;;;4995961;28;20037;-76
2023/11/23 07:18:15;;;;;;;20.70;4.10;;;11.00;99.90;;;;;;5010519;28;20045;-76
2023/11/23 07:20:42;;;;;;;15.93;4.00;;;11.00;99.90;;;;;;5008113;28;20088;-75
2023/11/23 07:23:10;;;;;;;15.45;3.78;;;11.00;99.90;;;;;;4994874;28;20124;-76
2023/11/23 07:25:42;;;;;;;15.93;3.70;;;11.00;99.90;;;;;;5008625;28;20164;-76
2023/11/23 07:28:11;;;;;;;15.10;4.03;;;11.00;99.90;;;;;;4991379;28;20045;-76
2023/11/23 07:30:41;;;;;;;13.05;3.70;;;11.00;99.90;;;;;;4996117;28;20530;-76
2023/11/23 07:33:08;;;;;;;16.17;4.22;;;11.00;99.90;;;;;;4993053;28;20048;-76
2023/11/23 07:35:38;;;;;;;15.60;4.05;;;11.10;99.90;;;;;;4995874;28;20041;-85
2023/11/23 07:38:04;;;;;;;18.20;3.80;;;11.10;99.90;;;;;;5012857;28;20069;-77
2023/11/23 07:40:30;;;;;;;18.77;4.10;;;11.10;99.90;;;;;;4993343;28;20095;-74
2023/11/23 07:42:56;;;;;;;12.68;3.58;;;11.10;99.90;;;;;;5013987;28;20395;-75
2023/11/23 07:45:22;;;;;;;18.23;3.85;;;11.10;99.90;;;;;;4993486;28;20059;-75
2023/11/23 07:47:48;;;;;;;12.75;3.53;;;11.10;99.90;;;;;;5016159;28;20047;-84
2023/11/23 07:50:17;;;;;;;18.67;4.47;;;11.10;99.90;;;;;;5011809;28;20041;-84
2023/11/23 07:52:44;;;;;;;12.23;3.45;;;11.20;99.90;;;;;;5013095;28;20504;-85
2023/11/23 07:55:10;;;;;;;13.88;3.45;;;11.10;99.90;;;;;;5002212;28;20103;-84
2023/11/23 07:57:37;;;;;;;8.40;2.85;;;11.20;99.90;;;;;;5007596;28;20041;-84
2023/11/23 08:00:04;;;;;;;13.68;3.55;;;11.20;99.90;;;;;;5003058;28;20034;-84
2023/11/23 08:02:31;;;;;;;13.20;3.55;;;11.20;99.90;;;;;;4990168;28;20567;-84
2023/11/23 08:04:57;;;;;;;15.40;3.75;;;11.20;99.90;;;;;;4991145;28;20785;-85
2023/11/23 08:07:24;;;;;;;13.93;3.00;;;11.30;99.90;;;;;;4993241;28;20046;-85
2023/11/23 08:09:50;;;;;;;19.58;3.75;;;11.20;99.90;;;;;;5006831;28;20443;-85
2023/11/23 08:12:17;;;;;;;12.20;3.10;;;11.20;99.90;;;;;;4983527;28;20045;-86
2023/11/23 08:14:43;;;;;;;14.32;3.80;;;11.20;99.90;;;;;;5006980;28;20100;-85
2023/11/23 08:17:08;;;;;;;10.27;3.13;;;11.20;99.90;;;;;;4989999;28;20124;-77
2023/11/23 08:19:35;;;;;;;11.63;3.35;;;11.30;99.90;;;;;;5004254;28;20145;-77
2023/11/23 08:22:02;;;;;;;15.98;3.83;;;11.30;99.90;;;;;;4990268;28;20046;-77
2023/11/23 08:24:28;;;;;;;11.52;3.33;;;11.30;99.90;;;;;;5003120;28;20049;-76
2023/11/23 08:26:54;;;;;;;14.30;3.05;;;11.40;99.90;;;;;;5021180;28;20053;-78
2023/11/23 08:29:20;;;;;;;9.52;2.83;;;11.40;99.90;;;;;;4989025;28;20052;-77
2023/11/23 08:31:46;;;;;;;11.00;3.10;;;11.40;99.90;;;;;;4979176;28;20096;-77
2023/11/23 08:34:12;;;;;;;14.80;3.28;;;11.40;99.90;;;;;;4984373;28;20049;-77
2023/11/23 08:36:41;;;;;;;13.43;3.38;;;11.40;99.90;;;;;;4993730;28;20397;-76
2023/11/23 08:39:11;;;;;;;12.90;2.73;;;11.40;99.90;;;;;;5004144;28;20045;-75
2023/11/23 08:41:47;;;;;;;11.88;3.17;;;11.40;99.90;;;;;;4982410;28;20140;-76
2023/11/23 08:44:15;;;;;;;12.25;3.42;;;11.40;99.90;;;;;;5001151;28;20400;-77
2023/11/23 08:46:41;;;;;;;12.93;3.63;;;11.40;99.90;;;;;;5004537;28;20095;-77
2023/11/23 08:49:10;;;;;;;13.82;3.03;;;11.40;99.90;;;;;;5008385;28;20048;-77
2023/11/23 08:51:37;;;;;;;10.10;3.08;;;11.50;99.90;;;;;;4999428;28;20053;-76
2023/11/23 08:54:03;;;;;;;11.10;2.97;;;11.50;99.90;;;;;;4997906;28;20038;-76
2023/11/23 08:56:30;;;;;;;10.95;2.95;;;11.50;99.90;;;;;;5003410;28;20052;-75
2023/11/23 08:58:55;;;;;;;8.52;2.83;;;11.60;99.90;;;;;;5002115;28;20095;-76
2023/11/23 09:01:26;;;;;;;7.47;2.30;;;11.60;99.90;;;;;;4998571;28;20037;-76
2023/11/23 09:03:54;;;;;;;12.77;2.90;;;11.60;99.90;;;;;;5007807;28;20041;-75
2023/11/23 09:06:20;;;;;;;7.22;2.42;;;11.60;99.90;;;;;;4992100;28;20053;-75
2023/11/23 09:08:46;;;;;;;10.55;3.30;;;11.70;99.90;;;;;;4996777;28;20046;-76
2023/11/23 09:11:12;;;;;;;12.32;3.47;;;11.70;99.90;;;;;;4986431;28;20056;-76
2023/11/23 09:13:38;;;;;;;10.35;2.95;;;11.70;99.90;;;;;;5003734;28;20072;-76
2023/11/23 09:16:04;;;;;;;7.82;2.50;;;11.80;99.90;;;;;;4975317;28;20041;-76
2023/11/23 09:18:30;;;;;;;10.50;2.80;;;11.80;99.90;;;;;;5002286;28;20484;-77
2023/11/23 09:20:56;;;;;;;11.27;3.08;;;11.80;99.90;;;;;;4975010;28;20124;-77
2023/11/23 09:23:22;;;;;;;9.18;2.17;;;11.90;99.90;;;;;;4979068;28;20050;-77
2023/11/23 09:25:48;;;;;;;13.40;3.30;;;11.90;99.90;;;;;;4991754;28;20164;-77
2023/11/23 09:28:14;;;;;;;11.63;3.10;;;11.90;99.90;;;;;;5000293;28;20137;-76
2023/11/23 09:30:41;;;;;;;10.60;2.85;;;11.90;99.90;;;;;;4980899;28;20682;-76
2023/11/23 09:33:09;;;;;;;13.00;2.67;;;12.00;99.90;;;;;;4989981;28;20048;-76
2023/11/23 09:35:39;;;;;;;10.35;2.78;;;12.00;99.90;;;;;;5002733;28;20057;-77
2023/11/23 09:38:06;;;;;;;11.93;2.78;;;12.00;99.90;;;;;;5002556;28;20056;-76
2023/11/23 09:40:32;;;;;;;10.85;2.65;;;12.00;99.90;;;;;;4992666;28;20553;-76
2023/11/23 09:42:58;;;;;;;9.85;2.90;;;12.00;99.90;;;;;;5005727;28;20038;-77
2023/11/23 09:45:24;;;;;;;11.05;2.65;;;12.00;99.90;;;;;;5004075;28;20057;-76
2023/11/23 09:47:52;;;;;;;9.65;2.47;;;12.00;99.90;;;;;;5005649;28;20043;-78
2023/11/23 09:50:19;;;;;;;12.93;3.10;;;12.10;99.90;;;;;;4988224;28;20522;-77
2023/11/23 09:52:46;;;;;;;12.85;2.88;;;12.10;99.90;;;;;;4989270;28;20052;-76
2023/11/23 09:55:16;;;;;;;12.80;2.67;;;12.20;99.90;;;;;;4983252;28;20114;-77
2023/11/23 09:57:48;;;;;;;11.10;2.60;;;12.20;99.90;;;;;;5007272;28;20045;-76
2023/11/23 10:00:14;;;;;;;13.20;3.25;;;12.20;99.90;;;;;;4995580;28;20111;-77
2023/11/23 10:02:42;;;;;;;11.32;3.10;;;12.20;99.90;;;;;;4991879;28;20068;-77
2023/11/23 10:05:11;;;;;;;10.10;2.70;;;12.30;99.90;;;;;;4989567;28;20053;-76
2023/11/23 10:07:38;;;;;;;10.57;2.63;;;12.30;99.90;;;;;;4991133;28;20038;-76
2023/11/23 10:10:05;;;;;;;12.60;3.00;;;12.30;99.90;;;;;;5008768;28;20057;-77
2023/11/23 10:12:34;;;;;;;11.20;2.53;;;12.30;99.90;;;;;;4987410;28;20459;-77
2023/11/23 10:14:59;;;;;;;12.32;2.63;;;12.40;99.90;;;;;;5014485;28;20408;-76
2023/11/23 10:17:25;;;;;;;11.05;2.63;;;12.40;99.90;;;;;;5006700;28;20057;-78
2023/11/23 10:19:52;;;;;;;13.98;3.55;;;12.40;99.90;;;;;;5004994;28;20400;-77
2023/11/23 10:22:18;;;;;;;11.93;2.85;;;12.40;99.90;;;;;;4990351;28;20041;-76
2023/11/23 10:24:48;;;;;;;11.57;2.97;;;12.50;99.90;;;;;;4999141;28;20030;-77
2023/11/23 10:27:19;;;;;;;;;;;12.50;99.90;;;;;;5022766;28;20578;-76
2023/11/23 10:29:46;;;;;;;8.00;2.72;;;12.40;99.90;;;;;;4993128;28;20430;-78
2023/11/23 10:32:16;;;;;;;10.55;2.50;;;12.50;99.90;;;;;;4996057;28;20079;-76
2023/11/23 10:34:42;;;;;;;12.25;2.67;;;12.50;99.90;;;;;;5016967;28;20512;-77
2023/11/23 10:37:16;;;;;;;9.90;2.10;;;12.50;99.90;;;;;;5010962;28;20054;-77
2023/11/23 10:39:44;;;;;;;8.15;2.80;;;12.50;99.90;;;;;;5001599;28;20056;-77
2023/11/23 10:42:14;;;;;;;7.55;2.70;;;12.50;99.90;;;;;;5005110;28;20049;-76
2023/11/23 10:44:41;;;;;;;10.25;2.28;;;12.50;99.90;;;;;;5008617;28;20053;-76
2023/11/23 10:47:09;;;;;;;6.97;2.22;;;12.50;99.90;;;;;;5003953;28;20373;-76
2023/11/23 10:49:36;;;;;;;6.40;2.08;;;12.50;99.90;;;;;;4995178;28;20480;-76
2023/11/23 10:52:08;;;;;;;7.90;2.58;;;12.50;99.90;;;;;;5002525;28;20052;-77
2023/11/23 10:54:36;;;;;;;10.77;2.60;;;12.50;99.90;;;;;;4999398;28;20080;-77
2023/11/23 10:57:05;;;;;;;8.77;2.72;;;12.50;99.90;;;;;;5001336;28;20527;-76
2023/11/23 10:59:32;;;;;;;9.93;2.38;;;12.60;99.90;;;;;;4987872;28;20579;-76
2023/11/23 11:01:58;;;;;;;9.75;2.42;;;12.60;99.90;;;;;;4988373;28;20547;-76
2023/11/23 11:04:29;;;;;;;8.68;2.33;;;12.60;99.90;;;;;;4993751;28;20137;-77
2023/11/23 11:06:57;;;;;;;9.88;2.47;;;12.60;99.90;;;;;;4988663;28;20037;-76
2023/11/23 11:09:26;;;;;;;10.13;2.42;;;12.60;99.90;;;;;;4984257;28;20052;-76
2023/11/23 11:12:00;;;;;;;12.88;2.65;;;12.70;99.90;;;;;;4981907;28;20041;-76
2023/11/23 11:14:36;;;;;;;8.82;2.53;;;12.70;99.90;;;;;;4995622;28;20045;-76
2023/11/23 11:17:04;;;;;;;10.27;2.58;;;12.70;99.90;;;;;;4992888;28;20046;-76
2023/11/23 11:19:50;;;;;;;10.63;2.30;;;12.70;99.90;;;;;;4993556;28;20081;-77
2023/11/23 11:22:16;;;;;;;9.38;2.60;;;12.80;99.90;;;;;;5003249;28;20732;-75
2023/11/23 11:24:44;;;;;;;7.30;2.20;;;12.80;99.90;;;;;;5005234;28;20054;-76
2023/11/23 11:27:14;;;;;;;9.60;2.58;;;12.80;99.90;;;;;;4990358;28;20587;-76
2023/11/23 11:29:53;;;;;;;9.07;2.53;;;12.80;99.90;;;;;;4993995;28;20096;-76
2023/11/23 11:32:20;;;;;;;11.18;2.10;;;12.80;99.90;;;;;;4991870;28;20070;-77
2023/11/23 11:34:46;;;;;;;12.57;2.28;;;12.90;99.90;;;;;;5000793;28;20044;-76
2023/11/23 11:37:12;;;;;;;10.45;2.35;;;12.90;99.90;;;;;;4994874;28;20045;-76
2023/11/23 11:39:41;;;;;;;6.45;1.88;;;12.90;99.90;;;;;;5003317;28;20108;-76
2023/11/23 11:42:09;;;;;;;12.23;2.58;;;13.00;99.90;;;;;;5008930;28;20096;-76
2023/11/23 11:44:45;;;;;;;9.75;2.47;;;13.00;99.90;;;;;;5002404;28;20052;-76
2023/11/23 11:47:12;;;;;;;9.50;3.00;;;13.00;99.90;;;;;;5001065;28;20459;-74
2023/11/23 11:49:38;;;;;;;10.77;3.00;;;13.00;99.90;;;;;;5004236;28;20156;-76
2023/11/23 11:52:12;;;;;;;11.70;2.42;;;13.00;99.90;;;;;;4993827;28;20768;-77
2023/11/23 11:54:38;;;;;;;11.27;2.70;;;12.90;99.90;;;;;;4991178;28;20132;-74
2023/11/23 11:57:07;;;;;;;8.48;2.30;;;13.00;99.90;;;;;;5009866;28;20128;-76
2023/11/23 11:59:35;;;;;;;10.63;2.87;;;12.90;99.90;;;;;;5001341;28;20467;-76
2023/11/23 12:02:04;;;;;;;10.90;2.70;;;12.90;99.90;;;;;;5001783;28;20492;-76
2023/11/23 12:04:33;;;;;;;16.10;3.05;;;13.00;99.90;;;;;;4989760;28;20057;-75
2023/11/23 12:07:00;;;;;;;9.48;2.50;;;13.00;99.90;;;;;;4989796;28;20108;-76
2023/11/23 12:09:27;;;;;;;8.85;2.75;;;13.00;99.90;;;;;;4999390;28;20459;-76
2023/11/23 12:12:06;;;;;;;12.20;2.80;;;13.00;99.90;;;;;;5003879;28;20041;-76
2023/11/23 12:14:35;;;;;;;11.77;3.28;;;13.00;99.90;;;;;;5000415;28;20046;-76
2023/11/23 12:17:11;;;;;;;12.38;2.95;;;12.90;99.90;;;;;;4997169;28;20041;-76
2023/11/23 12:19:36;;;;;;;13.15;3.05;;;12.90;99.90;;;;;;4990180;28;20469;-76
2023/11/23 12:22:03;;;;;;;12.73;2.80;;;12.90;99.90;;;;;;4999320;28;20123;-76
2023/11/23 12:24:32;;;;;;;12.38;3.10;;;12.90;99.90;;;;;;4995604;28;20060;-76
2023/11/23 12:27:01;;;;;;;13.43;2.80;;;12.90;99.90;;;;;;4986459;28;20037;-76
2023/11/23 12:29:30;;;;;;;11.50;2.60;;;12.90;99.90;;;;;;4999819;28;20085;-77
2023/11/23 12:32:01;;;;;;;10.15;2.47;;;12.90;99.90;;;;;;5007585;28;20076;-76
2023/11/23 12:34:27;;;;;;;15.43;3.10;;;12.90;99.90;;;;;;5000203;28;20053;-75
2023/11/23 12:36:57;;;;;;;11.68;2.75;;;12.90;99.90;;;;;;4995795;28;20049;-76
2023/11/23 12:39:28;;;;;;;13.10;2.80;;;12.90;99.90;;;;;;4999469;28;20143;-75